sensor_id;sensor_type;location;lat;lon;timestamp;P1;durP1;ratioP1;P2;durP2;ratioP2
70450;SDS011;58869;51.982;4.450;2024-01-25T00:04:57;23.06;;;14.31;;
70450;SDS011;58869;51.982;4.450;2024-01-25T00:07:23;22.11;;;13.66;;
70450;SDS011;58869;51.982;4.450;2024-01-25T00:09:51;22.30;;;13.83;;
70450;SDS011;58869;51.982;4.450;2024-01-25T00:12:18;24.27;;;14.78;;
70450;SDS011;58869;51.982;4.450;2024-01-25T00:14:44;25.90;;;15.67;;
70450;SDS011;58869;51.982;4.450;2024-01-25T00:17:25;25.53;;;15.26;;
70450;SDS011;58869;51.982;4.450;2024-01-25T00:20:03;22.80;;;14.09;;
70450;SDS011;58869;51.982;4.450;2024-01-25T00:22:33;24.13;;;14.82;;
70450;SDS011;58869;51.982;4.450;2024-01-25T00:24:59;22.40;;;13.87;;
70450;SDS011;58869;51.982;4.450;2024-01-25T00:27:25;21.31;;;13.21;;
70450;SDS011;58869;51.982;4.450;2024-01-25T00:29:53;23.11;;;14.29;;
70450;SDS011;58869;51.982;4.450;2024-01-25T00:32:19;24.23;;;14.65;;
70450;SDS011;58869;51.982;4.450;2024-01-25T00:35:09;23.25;;;14.39;;
70450;SDS011;58869;51.982;4.450;2024-01-25T00:37:39;24.34;;;14.97;;
70450;SDS011;58869;51.982;4.450;2024-01-25T00:40:21;23.36;;;14.33;;
70450;SDS011;58869;51.982;4.450;2024-01-25T00:42:47;20.99;;;13.13;;
70450;SDS011;58869;51.982;4.450;2024-01-25T00:45:22;22.34;;;13.96;;
70450;SDS011;58869;51.982;4.450;2024-01-25T00:51:28;25.11;;;15.24;;
70450;SDS011;58869;51.982;4.450;2024-01-25T00:53:54;22.73;;;14.00;;
70450;SDS011;58869;51.982;4.450;2024-01-25T00:56:19;22.39;;;13.87;;
70450;SDS011;58869;51.982;4.450;2024-01-25T00:58:48;21.40;;;13.62;;
70450;SDS011;58869;51.982;4.450;2024-01-25T01:01:19;21.61;;;13.65;;
70450;SDS011;58869;51.982;4.450;2024-01-25T01:03:50;21.48;;;13.45;;
70450;SDS011;58869;51.982;4.450;2024-01-25T01:06:20;22.21;;;13.86;;
70450;SDS011;58869;51.982;4.450;2024-01-25T01:08:46;22.92;;;14.26;;
70450;SDS011;58869;51.982;4.450;2024-01-25T01:11:12;23.87;;;14.74;;
70450;SDS011;58869;51.982;4.450;2024-01-25T01:13:40;22.90;;;14.19;;
70450;SDS011;58869;51.982;4.450;2024-01-25T01:16:17;24.16;;;14.70;;
70450;SDS011;58869;51.982;4.450;2024-01-25T01:19:03;22.65;;;13.97;;
70450;SDS011;58869;51.982;4.450;2024-01-25T01:21:34;22.17;;;13.78;;
70450;SDS011;58869;51.982;4.450;2024-01-25T01:24:09;22.35;;;13.93;;
70450;SDS011;58869;51.982;4.450;2024-01-25T01:26:46;21.99;;;13.75;;
70450;SDS011;58869;51.982;4.450;2024-01-25T01:29:17;22.27;;;13.90;;
70450;SDS011;58869;51.982;4.450;2024-01-25T01:31:58;22.43;;;13.85;;
70450;SDS011;58869;51.982;4.450;2024-01-25T01:34:33;22.77;;;14.09;;
70450;SDS011;58869;51.982;4.450;2024-01-25T01:37:12;23.13;;;14.31;;
70450;SDS011;58869;51.982;4.450;2024-01-25T01:39:50;23.10;;;14.28;;
70450;SDS011;58869;51.982;4.450;2024-01-25T01:45:19;23.10;;;14.30;;
70450;SDS011;58869;51.982;4.450;2024-01-25T01:48:02;24.47;;;14.77;;
70450;SDS011;58869;51.982;4.450;2024-01-25T01:50:29;24.28;;;14.87;;
70450;SDS011;58869;51.982;4.450;2024-01-25T01:52:54;23.56;;;14.59;;
70450;SDS011;58869;51.982;4.450;2024-01-25T01:55:20;23.73;;;14.65;;
70450;SDS011;58869;51.982;4.450;2024-01-25T01:57:46;23.33;;;14.47;;
70450;SDS011;58869;51.982;4.450;2024-01-25T02:00:21;22.41;;;13.94;;
70450;SDS011;58869;51.982;4.450;2024-01-25T02:02:53;23.11;;;14.36;;
70450;SDS011;58869;51.982;4.450;2024-01-25T02:05:41;23.55;;;14.88;;
70450;SDS011;58869;51.982;4.450;2024-01-25T02:08:13;21.76;;;13.58;;
70450;SDS011;58869;51.982;4.450;2024-01-25T02:10:42;22.30;;;13.85;;
70450;SDS011;58869;51.982;4.450;2024-01-25T02:13:08;24.80;;;15.25;;
70450;SDS011;58869;51.982;4.450;2024-01-25T02:15:34;22.20;;;13.76;;
70450;SDS011;58869;51.982;4.450;2024-01-25T02:18:00;22.92;;;14.24;;
70450;SDS011;58869;51.982;4.450;2024-01-25T02:20:26;20.85;;;13.09;;
70450;SDS011;58869;51.982;4.450;2024-01-25T02:23:25;23.81;;;14.56;;
70450;SDS011;58869;51.982;4.450;2024-01-25T02:25:43;23.28;;;14.41;;
70450;SDS011;58869;51.982;4.450;2024-01-25T02:28:27;22.53;;;14.02;;
70450;SDS011;58869;51.982;4.450;2024-01-25T02:30:59;21.39;;;13.39;;
70450;SDS011;58869;51.982;4.450;2024-01-25T02:33:25;23.08;;;14.37;;
70450;SDS011;58869;51.982;4.450;2024-01-25T02:35:56;23.82;;;14.68;;
70450;SDS011;58869;51.982;4.450;2024-01-25T02:38:25;23.29;;;14.39;;
70450;SDS011;58869;51.982;4.450;2024-01-25T02:40:50;22.26;;;13.99;;
70450;SDS011;58869;51.982;4.450;2024-01-25T02:43:40;21.92;;;13.84;;
70450;SDS011;58869;51.982;4.450;2024-01-25T02:46:07;23.41;;;14.49;;
70450;SDS011;58869;51.982;4.450;2024-01-25T02:48:34;22.49;;;14.08;;
70450;SDS011;58869;51.982;4.450;2024-01-25T02:51:02;22.98;;;14.34;;
70450;SDS011;58869;51.982;4.450;2024-01-25T03:00:01;23.69;;;14.74;;
70450;SDS011;58869;51.982;4.450;2024-01-25T03:05:41;22.72;;;14.06;;
70450;SDS011;58869;51.982;4.450;2024-01-25T03:08:07;22.58;;;14.12;;
70450;SDS011;58869;51.982;4.450;2024-01-25T03:10:33;22.56;;;14.02;;
70450;SDS011;58869;51.982;4.450;2024-01-25T03:13:01;23.80;;;14.70;;
70450;SDS011;58869;51.982;4.450;2024-01-25T03:15:27;23.14;;;14.35;;
70450;SDS011;58869;51.982;4.450;2024-01-25T03:17:53;23.60;;;14.67;;
70450;SDS011;58869;51.982;4.450;2024-01-25T03:20:18;23.55;;;14.70;;
70450;SDS011;58869;51.982;4.450;2024-01-25T03:22:47;20.98;;;13.31;;
70450;SDS011;58869;51.982;4.450;2024-01-25T03:25:16;24.18;;;15.15;;
70450;SDS011;58869;51.982;4.450;2024-01-25T03:30:47;22.32;;;13.98;;
70450;SDS011;58869;51.982;4.450;2024-01-25T03:33:45;23.35;;;14.54;;
70450;SDS011;58869;51.982;4.450;2024-01-25T03:38:49;23.75;;;14.64;;
70450;SDS011;58869;51.982;4.450;2024-01-25T03:41:17;21.90;;;13.66;;
70450;SDS011;58869;51.982;4.450;2024-01-25T03:43:51;23.26;;;14.49;;
70450;SDS011;58869;51.982;4.450;2024-01-25T03:50:06;23.25;;;14.32;;
70450;SDS011;58869;51.982;4.450;2024-01-25T03:52:41;21.16;;;13.30;;
70450;SDS011;58869;51.982;4.450;2024-01-25T03:55:23;19.86;;;12.60;;
70450;SDS011;58869;51.982;4.450;2024-01-25T03:57:48;20.00;;;12.86;;
70450;SDS011;58869;51.982;4.450;2024-01-25T04:00:20;19.48;;;12.67;;
70450;SDS011;58869;51.982;4.450;2024-01-25T04:02:47;19.71;;;12.57;;
70450;SDS011;58869;51.982;4.450;2024-01-25T04:05:19;19.66;;;12.57;;
70450;SDS011;58869;51.982;4.450;2024-01-25T04:07:51;20.83;;;13.31;;
70450;SDS011;58869;51.982;4.450;2024-01-25T04:10:41;19.16;;;12.45;;
70450;SDS011;58869;51.982;4.450;2024-01-25T04:13:23;19.17;;;12.37;;
70450;SDS011;58869;51.982;4.450;2024-01-25T04:15:48;20.36;;;12.98;;
70450;SDS011;58869;51.982;4.450;2024-01-25T04:18:23;19.82;;;12.65;;
70450;SDS011;58869;51.982;4.450;2024-01-25T04:20:55;19.84;;;12.80;;
70450;SDS011;58869;51.982;4.450;2024-01-25T04:23:26;20.28;;;12.97;;
70450;SDS011;58869;51.982;4.450;2024-01-25T04:26:25;18.96;;;12.32;;
70450;SDS011;58869;51.982;4.450;2024-01-25T04:28:50;19.59;;;12.62;;
70450;SDS011;58869;51.982;4.450;2024-01-25T04:31:22;18.99;;;12.26;;
70450;SDS011;58869;51.982;4.450;2024-01-25T04:33:57;18.40;;;12.09;;
70450;SDS011;58869;51.982;4.450;2024-01-25T04:36:29;20.15;;;13.12;;
70450;SDS011;58869;51.982;4.450;2024-01-25T04:38:57;19.36;;;12.53;;
70450;SDS011;58869;51.982;4.450;2024-01-25T04:41:22;18.83;;;12.20;;
70450;SDS011;58869;51.982;4.450;2024-01-25T04:43:49;18.53;;;11.95;;
70450;SDS011;58869;51.982;4.450;2024-01-25T04:48:53;19.64;;;12.55;;
70450;SDS011;58869;51.982;4.450;2024-01-25T04:51:22;20.05;;;12.69;;
70450;SDS011;58869;51.982;4.450;2024-01-25T04:53:50;16.34;;;10.91;;
70450;SDS011;58869;51.982;4.450;2024-01-25T04:56:16;19.47;;;12.91;;
70450;SDS011;58869;51.982;4.450;2024-01-25T04:58:41;20.90;;;13.43;;
70450;SDS011;58869;51.982;4.450;2024-01-25T05:01:09;20.05;;;13.13;;
70450;SDS011;58869;51.982;4.450;2024-01-25T05:03:37;19.67;;;12.98;;
70450;SDS011;58869;51.982;4.450;2024-01-25T05:06:03;19.91;;;13.12;;
70450;SDS011;58869;51.982;4.450;2024-01-25T05:08:29;18.80;;;12.77;;
70450;SDS011;58869;51.982;4.450;2024-01-25T05:10:54;19.26;;;13.00;;
70450;SDS011;58869;51.982;4.450;2024-01-25T05:13:19;20.22;;;13.62;;
70450;SDS011;58869;51.982;4.450;2024-01-25T05:15:45;19.75;;;13.28;;
70450;SDS011;58869;51.982;4.450;2024-01-25T05:18:13;18.33;;;12.56;;
70450;SDS011;58869;51.982;4.450;2024-01-25T05:27:14;16.15;;;11.37;;
70450;SDS011;58869;51.982;4.450;2024-01-25T05:30:21;16.68;;;11.87;;
70450;SDS011;58869;51.982;4.450;2024-01-25T05:36:18;20.20;;;13.64;;
70450;SDS011;58869;51.982;4.450;2024-01-25T05:39:05;17.78;;;12.32;;
70450;SDS011;58869;51.982;4.450;2024-01-25T05:41:31;16.93;;;11.81;;
70450;SDS011;58869;51.982;4.450;2024-01-25T05:46:54;19.83;;;13.69;;
70450;SDS011;58869;51.982;4.450;2024-01-25T05:52:32;19.01;;;13.09;;
70450;SDS011;58869;51.982;4.450;2024-01-25T05:55:16;19.72;;;13.72;;
70450;SDS011;58869;51.982;4.450;2024-01-25T05:57:42;19.31;;;13.65;;
70450;SDS011;58869;51.982;4.450;2024-01-25T06:00:21;18.66;;;13.33;;
70450;SDS011;58869;51.982;4.450;2024-01-25T06:02:47;18.25;;;13.31;;
70450;SDS011;58869;51.982;4.450;2024-01-25T06:05:12;21.30;;;15.31;;
70450;SDS011;58869;51.982;4.450;2024-01-25T06:07:38;18.71;;;13.97;;
70450;SDS011;58869;51.982;4.450;2024-01-25T06:10:03;18.07;;;13.83;;
70450;SDS011;58869;51.982;4.450;2024-01-25T06:12:29;18.79;;;13.79;;
70450;SDS011;58869;51.982;4.450;2024-01-25T06:15:00;20.60;;;14.88;;
70450;SDS011;58869;51.982;4.450;2024-01-25T06:17:26;18.62;;;14.09;;
70450;SDS011;58869;51.982;4.450;2024-01-25T06:20:03;19.81;;;14.83;;
70450;SDS011;58869;51.982;4.450;2024-01-25T06:22:30;18.95;;;14.45;;
70450;SDS011;58869;51.982;4.450;2024-01-25T06:24:55;17.83;;;13.95;;
70450;SDS011;58869;51.982;4.450;2024-01-25T06:27:20;17.03;;;13.38;;
70450;SDS011;58869;51.982;4.450;2024-01-25T06:29:46;18.19;;;14.15;;
70450;SDS011;58869;51.982;4.450;2024-01-25T06:32:12;18.55;;;14.42;;
70450;SDS011;58869;51.982;4.450;2024-01-25T06:34:37;18.64;;;14.66;;
70450;SDS011;58869;51.982;4.450;2024-01-25T06:37:03;18.31;;;14.83;;
70450;SDS011;58869;51.982;4.450;2024-01-25T06:39:28;18.73;;;14.94;;
70450;SDS011;58869;51.982;4.450;2024-01-25T06:41:54;19.15;;;15.41;;
70450;SDS011;58869;51.982;4.450;2024-01-25T06:44:20;19.37;;;15.95;;
70450;SDS011;58869;51.982;4.450;2024-01-25T06:46:53;18.95;;;15.49;;
70450;SDS011;58869;51.982;4.450;2024-01-25T06:49:19;19.49;;;15.60;;
70450;SDS011;58869;51.982;4.450;2024-01-25T06:51:44;18.04;;;14.79;;
70450;SDS011;58869;51.982;4.450;2024-01-25T06:54:13;18.62;;;15.05;;
70450;SDS011;58869;51.982;4.450;2024-01-25T06:56:38;19.56;;;15.78;;
70450;SDS011;58869;51.982;4.450;2024-01-25T06:59:04;17.92;;;14.32;;
70450;SDS011;58869;51.982;4.450;2024-01-25T07:01:31;18.52;;;14.80;;
70450;SDS011;58869;51.982;4.450;2024-01-25T07:03:57;17.34;;;13.95;;
70450;SDS011;58869;51.982;4.450;2024-01-25T07:06:26;17.93;;;14.01;;
70450;SDS011;58869;51.982;4.450;2024-01-25T07:08:53;18.63;;;14.47;;
70450;SDS011;58869;51.982;4.450;2024-01-25T07:11:19;19.36;;;15.06;;
70450;SDS011;58869;51.982;4.450;2024-01-25T07:13:44;18.57;;;14.60;;
70450;SDS011;58869;51.982;4.450;2024-01-25T07:16:10;18.87;;;14.95;;
70450;SDS011;58869;51.982;4.450;2024-01-25T07:18:35;19.10;;;14.92;;
70450;SDS011;58869;51.982;4.450;2024-01-25T07:21:01;19.03;;;15.11;;
70450;SDS011;58869;51.982;4.450;2024-01-25T07:23:29;18.08;;;14.64;;
70450;SDS011;58869;51.982;4.450;2024-01-25T07:25:58;19.69;;;15.57;;
70450;SDS011;58869;51.982;4.450;2024-01-25T07:28:29;16.91;;;13.80;;
70450;SDS011;58869;51.982;4.450;2024-01-25T07:31:37;16.37;;;13.36;;
70450;SDS011;58869;51.982;4.450;2024-01-25T07:34:17;18.91;;;14.93;;
70450;SDS011;58869;51.982;4.450;2024-01-25T07:40:12;19.14;;;14.98;;
70450;SDS011;58869;51.982;4.450;2024-01-25T07:42:38;19.93;;;15.73;;
70450;SDS011;58869;51.982;4.450;2024-01-25T07:45:03;19.90;;;15.64;;
70450;SDS011;58869;51.982;4.450;2024-01-25T07:47:29;20.98;;;16.31;;
70450;SDS011;58869;51.982;4.450;2024-01-25T07:49:56;19.96;;;15.98;;
70450;SDS011;58869;51.982;4.450;2024-01-25T07:52:22;18.19;;;15.07;;
70450;SDS011;58869;51.982;4.450;2024-01-25T07:54:48;17.73;;;14.37;;
70450;SDS011;58869;51.982;4.450;2024-01-25T07:57:13;19.16;;;15.15;;
70450;SDS011;58869;51.982;4.450;2024-01-25T07:59:39;20.28;;;15.72;;
70450;SDS011;58869;51.982;4.450;2024-01-25T08:02:05;20.05;;;15.41;;
70450;SDS011;58869;51.982;4.450;2024-01-25T08:08:25;19.93;;;15.95;;
70450;SDS011;58869;51.982;4.450;2024-01-25T08:10:57;18.94;;;15.48;;
70450;SDS011;58869;51.982;4.450;2024-01-25T08:20:11;19.80;;;15.39;;
70450;SDS011;58869;51.982;4.450;2024-01-25T08:22:38;18.91;;;14.73;;
70450;SDS011;58869;51.982;4.450;2024-01-25T08:25:07;19.64;;;15.08;;
70450;SDS011;58869;51.982;4.450;2024-01-25T08:27:33;18.96;;;14.48;;
70450;SDS011;58869;51.982;4.450;2024-01-25T08:29:58;19.83;;;15.12;;
70450;SDS011;58869;51.982;4.450;2024-01-25T08:32:24;20.10;;;15.07;;
70450;SDS011;58869;51.982;4.450;2024-01-25T08:34:50;19.22;;;14.56;;
70450;SDS011;58869;51.982;4.450;2024-01-25T08:37:15;19.57;;;15.10;;
70450;SDS011;58869;51.982;4.450;2024-01-25T08:39:41;19.38;;;14.78;;
70450;SDS011;58869;51.982;4.450;2024-01-25T08:42:08;21.03;;;15.64;;
70450;SDS011;58869;51.982;4.450;2024-01-25T08:44:33;20.14;;;15.11;;
70450;SDS011;58869;51.982;4.450;2024-01-25T08:46:59;18.12;;;14.05;;
70450;SDS011;58869;51.982;4.450;2024-01-25T08:49:24;19.51;;;15.07;;
70450;SDS011;58869;51.982;4.450;2024-01-25T08:51:50;17.20;;;13.79;;
70450;SDS011;58869;51.982;4.450;2024-01-25T08:54:16;17.95;;;14.17;;
70450;SDS011;58869;51.982;4.450;2024-01-25T08:56:44;17.79;;;14.12;;
70450;SDS011;58869;51.982;4.450;2024-01-25T08:59:09;19.02;;;14.65;;
70450;SDS011;58869;51.982;4.450;2024-01-25T09:01:35;18.72;;;14.70;;
70450;SDS011;58869;51.982;4.450;2024-01-25T09:04:00;18.14;;;14.51;;
70450;SDS011;58869;51.982;4.450;2024-01-25T09:06:28;18.31;;;14.68;;
70450;SDS011;58869;51.982;4.450;2024-01-25T09:08:54;17.46;;;13.95;;
70450;SDS011;58869;51.982;4.450;2024-01-25T09:11:20;18.46;;;14.95;;
70450;SDS011;58869;51.982;4.450;2024-01-25T09:13:50;18.57;;;14.98;;
70450;SDS011;58869;51.982;4.450;2024-01-25T09:16:25;16.90;;;13.67;;
70450;SDS011;58869;51.982;4.450;2024-01-25T09:19:36;19.22;;;15.15;;
70450;SDS011;58869;51.982;4.450;2024-01-25T09:22:04;21.33;;;16.20;;
70450;SDS011;58869;51.982;4.450;2024-01-25T09:25:15;20.01;;;15.32;;
70450;SDS011;58869;51.982;4.450;2024-01-25T09:28:28;18.97;;;14.68;;
70450;SDS011;58869;51.982;4.450;2024-01-25T09:30:56;19.98;;;15.44;;
70450;SDS011;58869;51.982;4.450;2024-01-25T09:33:29;19.10;;;14.89;;
70450;SDS011;58869;51.982;4.450;2024-01-25T09:36:23;18.69;;;14.71;;
70450;SDS011;58869;51.982;4.450;2024-01-25T09:38:49;17.13;;;13.93;;
70450;SDS011;58869;51.982;4.450;2024-01-25T09:41:22;17.80;;;14.41;;
70450;SDS011;58869;51.982;4.450;2024-01-25T09:47:04;18.07;;;14.76;;
70450;SDS011;58869;51.982;4.450;2024-01-25T09:58:48;16.27;;;13.41;;
70450;SDS011;58869;51.982;4.450;2024-01-25T10:01:15;17.57;;;13.95;;
70450;SDS011;58869;51.982;4.450;2024-01-25T10:07:13;17.87;;;14.29;;
70450;SDS011;58869;51.982;4.450;2024-01-25T10:12:39;17.24;;;14.03;;
70450;SDS011;58869;51.982;4.450;2024-01-25T10:15:06;17.77;;;14.09;;
70450;SDS011;58869;51.982;4.450;2024-01-25T10:17:31;18.24;;;14.65;;
70450;SDS011;58869;51.982;4.450;2024-01-25T10:19:57;17.73;;;14.04;;
70450;SDS011;58869;51.982;4.450;2024-01-25T10:25:46;16.64;;;13.61;;
70450;SDS011;58869;51.982;4.450;2024-01-25T10:28:17;18.24;;;14.40;;
70450;SDS011;58869;51.982;4.450;2024-01-25T10:30:50;17.01;;;13.76;;
70450;SDS011;58869;51.982;4.450;2024-01-25T10:33:55;18.45;;;14.62;;
70450;SDS011;58869;51.982;4.450;2024-01-25T10:39:16;17.52;;;14.05;;
70450;SDS011;58869;51.982;4.450;2024-01-25T10:51:21;17.82;;;14.49;;
70450;SDS011;58869;51.982;4.450;2024-01-25T11:04:12;20.57;;;16.20;;
70450;SDS011;58869;51.982;4.450;2024-01-25T11:06:39;19.48;;;15.59;;
70450;SDS011;58869;51.982;4.450;2024-01-25T11:09:05;19.66;;;15.90;;
70450;SDS011;58869;51.982;4.450;2024-01-25T11:11:31;18.65;;;15.27;;
70450;SDS011;58869;51.982;4.450;2024-01-25T11:14:00;21.63;;;17.16;;
70450;SDS011;58869;51.982;4.450;2024-01-25T11:16:44;22.17;;;17.95;;
70450;SDS011;58869;51.982;4.450;2024-01-25T11:19:19;21.85;;;18.08;;
70450;SDS011;58869;51.982;4.450;2024-01-25T11:21:47;20.91;;;17.71;;
70450;SDS011;58869;51.982;4.450;2024-01-25T11:24:24;22.31;;;18.34;;
70450;SDS011;58869;51.982;4.450;2024-01-25T11:26:54;21.67;;;18.05;;
70450;SDS011;58869;51.982;4.450;2024-01-25T11:29:20;20.88;;;17.65;;
70450;SDS011;58869;51.982;4.450;2024-01-25T11:31:48;20.41;;;17.42;;
70450;SDS011;58869;51.982;4.450;2024-01-25T11:34:21;21.05;;;17.56;;
70450;SDS011;58869;51.982;4.450;2024-01-25T11:36:48;21.26;;;17.67;;
70450;SDS011;58869;51.982;4.450;2024-01-25T11:39:15;21.91;;;18.06;;
70450;SDS011;58869;51.982;4.450;2024-01-25T11:41:42;22.24;;;17.90;;
70450;SDS011;58869;51.982;4.450;2024-01-25T11:44:15;21.14;;;17.35;;
70450;SDS011;58869;51.982;4.450;2024-01-25T11:46:41;20.44;;;17.13;;
70450;SDS011;58869;51.982;4.450;2024-01-25T11:49:07;20.30;;;16.94;;
70450;SDS011;58869;51.982;4.450;2024-01-25T11:51:32;20.71;;;17.03;;
70450;SDS011;58869;51.982;4.450;2024-01-25T11:53:58;22.35;;;17.81;;
70450;SDS011;58869;51.982;4.450;2024-01-25T11:56:28;20.45;;;16.64;;
70450;SDS011;58869;51.982;4.450;2024-01-25T12:05:49;19.90;;;15.98;;
70450;SDS011;58869;51.982;4.450;2024-01-25T12:08:34;20.19;;;16.10;;
70450;SDS011;58869;51.982;4.450;2024-01-25T12:13:47;18.61;;;14.84;;
70450;SDS011;58869;51.982;4.450;2024-01-25T12:16:14;22.89;;;17.01;;
70450;SDS011;58869;51.982;4.450;2024-01-25T12:18:41;21.82;;;16.20;;
70450;SDS011;58869;51.982;4.450;2024-01-25T12:21:23;19.00;;;14.73;;
70450;SDS011;58869;51.982;4.450;2024-01-25T12:27:30;21.42;;;15.96;;
70450;SDS011;58869;51.982;4.450;2024-01-25T12:33:17;23.35;;;16.56;;
70450;SDS011;58869;51.982;4.450;2024-01-25T12:35:43;22.02;;;15.75;;
70450;SDS011;58869;51.982;4.450;2024-01-25T12:38:08;21.90;;;15.89;;
70450;SDS011;58869;51.982;4.450;2024-01-25T12:40:54;23.12;;;16.67;;
70450;SDS011;58869;51.982;4.450;2024-01-25T12:46:32;22.35;;;16.51;;
70450;SDS011;58869;51.982;4.450;2024-01-25T12:49:00;25.11;;;17.71;;
70450;SDS011;58869;51.982;4.450;2024-01-25T12:51:25;23.80;;;17.31;;
70450;SDS011;58869;51.982;4.450;2024-01-25T12:53:57;22.48;;;16.45;;
70450;SDS011;58869;51.982;4.450;2024-01-25T12:56:22;24.93;;;17.57;;
70450;SDS011;58869;51.982;4.450;2024-01-25T12:58:48;24.22;;;17.24;;
70450;SDS011;58869;51.982;4.450;2024-01-25T13:01:13;25.38;;;18.18;;
70450;SDS011;58869;51.982;4.450;2024-01-25T13:06:55;20.67;;;15.81;;
70450;SDS011;58869;51.982;4.450;2024-01-25T13:09:27;20.39;;;15.64;;
70450;SDS011;58869;51.982;4.450;2024-01-25T13:12:17;21.38;;;16.31;;
70450;SDS011;58869;51.982;4.450;2024-01-25T13:18:06;19.97;;;16.12;;
70450;SDS011;58869;51.982;4.450;2024-01-25T13:20:31;18.43;;;15.46;;
70450;SDS011;58869;51.982;4.450;2024-01-25T13:23:14;19.30;;;16.02;;
70450;SDS011;58869;51.982;4.450;2024-01-25T13:28:46;18.63;;;15.78;;
70450;SDS011;58869;51.982;4.450;2024-01-25T13:31:49;18.35;;;15.36;;
70450;SDS011;58869;51.982;4.450;2024-01-25T13:37:18;19.71;;;16.41;;
70450;SDS011;58869;51.982;4.450;2024-01-25T13:42:49;19.48;;;16.30;;
70450;SDS011;58869;51.982;4.450;2024-01-25T13:45:23;19.17;;;16.35;;
70450;SDS011;58869;51.982;4.450;2024-01-25T13:48:06;17.03;;;15.00;;
70450;SDS011;58869;51.982;4.450;2024-01-25T13:50:37;18.70;;;16.39;;
70450;SDS011;58869;51.982;4.450;2024-01-25T13:53:05;19.35;;;17.07;;
70450;SDS011;58869;51.982;4.450;2024-01-25T13:55:30;19.85;;;18.04;;
70450;SDS011;58869;51.982;4.450;2024-01-25T13:57:56;19.71;;;18.60;;
70450;SDS011;58869;51.982;4.450;2024-01-25T14:03:24;21.84;;;21.16;;
70450;SDS011;58869;51.982;4.450;2024-01-25T14:05:58;21.86;;;21.40;;
70450;SDS011;58869;51.982;4.450;2024-01-25T14:08:44;23.41;;;22.84;;
70450;SDS011;58869;51.982;4.450;2024-01-25T14:11:09;26.60;;;25.91;;
70450;SDS011;58869;51.982;4.450;2024-01-25T14:13:41;29.04;;;28.02;;
70450;SDS011;58869;51.982;4.450;2024-01-25T14:16:26;30.06;;;29.37;;
70450;SDS011;58869;51.982;4.450;2024-01-25T14:19:47;31.19;;;30.46;;
70450;SDS011;58869;51.982;4.450;2024-01-25T14:22:28;33.51;;;32.27;;
70450;SDS011;58869;51.982;4.450;2024-01-25T14:36:38;45.91;;;42.93;;
70450;SDS011;58869;51.982;4.450;2024-01-25T14:39:06;45.18;;;42.61;;
70450;SDS011;58869;51.982;4.450;2024-01-25T14:41:33;44.65;;;42.24;;
70450;SDS011;58869;51.982;4.450;2024-01-25T14:43:59;45.09;;;42.75;;
70450;SDS011;58869;51.982;4.450;2024-01-25T14:46:28;42.80;;;40.90;;
70450;SDS011;58869;51.982;4.450;2024-01-25T14:48:53;43.84;;;41.77;;
70450;SDS011;58869;51.982;4.450;2024-01-25T14:57:16;42.16;;;39.83;;
70450;SDS011;58869;51.982;4.450;2024-01-25T15:00:02;42.56;;;40.52;;
70450;SDS011;58869;51.982;4.450;2024-01-25T15:02:32;39.21;;;38.07;;
70450;SDS011;58869;51.982;4.450;2024-01-25T15:07:53;37.92;;;36.50;;
70450;SDS011;58869;51.982;4.450;2024-01-25T15:10:21;38.82;;;37.27;;
70450;SDS011;58869;51.982;4.450;2024-01-25T15:12:47;37.82;;;36.48;;
70450;SDS011;58869;51.982;4.450;2024-01-25T15:15:13;36.52;;;35.57;;
70450;SDS011;58869;51.982;4.450;2024-01-25T15:17:41;36.14;;;35.38;;
70450;SDS011;58869;51.982;4.450;2024-01-25T15:20:24;36.98;;;35.80;;
70450;SDS011;58869;51.982;4.450;2024-01-25T15:22:58;36.18;;;35.32;;
70450;SDS011;58869;51.982;4.450;2024-01-25T15:25:34;35.63;;;34.53;;
70450;SDS011;58869;51.982;4.450;2024-01-25T15:28:02;35.46;;;34.49;;
70450;SDS011;58869;51.982;4.450;2024-01-25T15:30:36;35.92;;;34.98;;
70450;SDS011;58869;51.982;4.450;2024-01-25T15:33:24;34.47;;;33.49;;
70450;SDS011;58869;51.982;4.450;2024-01-25T15:38:25;33.71;;;32.98;;
70450;SDS011;58869;51.982;4.450;2024-01-25T15:40:50;33.40;;;32.74;;
70450;SDS011;58869;51.982;4.450;2024-01-25T15:43:16;33.28;;;32.59;;
70450;SDS011;58869;51.982;4.450;2024-01-25T15:45:42;33.02;;;32.10;;
70450;SDS011;58869;51.982;4.450;2024-01-25T15:48:09;32.86;;;32.06;;
70450;SDS011;58869;51.982;4.450;2024-01-25T15:50:36;31.91;;;31.31;;
70450;SDS011;58869;51.982;4.450;2024-01-25T15:53:03;32.28;;;31.76;;
70450;SDS011;58869;51.982;4.450;2024-01-25T15:55:28;33.10;;;32.37;;
70450;SDS011;58869;51.982;4.450;2024-01-25T16:00:58;32.53;;;31.78;;
70450;SDS011;58869;51.982;4.450;2024-01-25T16:03:23;32.98;;;32.42;;
70450;SDS011;58869;51.982;4.450;2024-01-25T16:05:49;32.98;;;32.17;;
70450;SDS011;58869;51.982;4.450;2024-01-25T16:08:17;32.94;;;32.35;;
70450;SDS011;58869;51.982;4.450;2024-01-25T16:10:43;32.85;;;32.06;;
70450;SDS011;58869;51.982;4.450;2024-01-25T16:16:29;33.52;;;32.71;;
70450;SDS011;58869;51.982;4.450;2024-01-25T16:19:00;33.86;;;33.27;;
70450;SDS011;58869;51.982;4.450;2024-01-25T16:21:26;33.49;;;32.90;;
70450;SDS011;58869;51.982;4.450;2024-01-25T16:23:58;33.92;;;33.13;;
70450;SDS011;58869;51.982;4.450;2024-01-25T16:26:33;34.53;;;33.87;;
70450;SDS011;58869;51.982;4.450;2024-01-25T16:34:39;35.15;;;34.33;;
70450;SDS011;58869;51.982;4.450;2024-01-25T16:37:05;35.18;;;34.55;;
70450;SDS011;58869;51.982;4.450;2024-01-25T16:39:30;35.34;;;34.76;;
70450;SDS011;58869;51.982;4.450;2024-01-25T16:41:56;35.95;;;35.32;;
70450;SDS011;58869;51.982;4.450;2024-01-25T16:44:21;35.93;;;35.27;;
70450;SDS011;58869;51.982;4.450;2024-01-25T16:46:47;36.99;;;35.91;;
70450;SDS011;58869;51.982;4.450;2024-01-25T16:49:12;36.47;;;35.70;;
70450;SDS011;58869;51.982;4.450;2024-01-25T16:51:38;36.18;;;35.57;;
70450;SDS011;58869;51.982;4.450;2024-01-25T16:54:03;36.36;;;35.33;;
70450;SDS011;58869;51.982;4.450;2024-01-25T16:56:29;36.29;;;35.31;;
70450;SDS011;58869;51.982;4.450;2024-01-25T16:58:54;36.24;;;35.41;;
70450;SDS011;58869;51.982;4.450;2024-01-25T17:01:20;35.19;;;34.74;;
70450;SDS011;58869;51.982;4.450;2024-01-25T17:03:48;37.13;;;36.27;;
70450;SDS011;58869;51.982;4.450;2024-01-25T17:06:14;38.30;;;37.35;;
70450;SDS011;58869;51.982;4.450;2024-01-25T17:08:42;37.44;;;36.66;;
70450;SDS011;58869;51.982;4.450;2024-01-25T17:11:34;38.17;;;37.46;;
70450;SDS011;58869;51.982;4.450;2024-01-25T17:14:00;38.04;;;36.98;;
70450;SDS011;58869;51.982;4.450;2024-01-25T17:19:54;38.36;;;37.29;;
70450;SDS011;58869;51.982;4.450;2024-01-25T17:22:32;37.96;;;36.79;;
70450;SDS011;58869;51.982;4.450;2024-01-25T17:30:57;37.25;;;36.11;;
70450;SDS011;58869;51.982;4.450;2024-01-25T17:39:43;36.77;;;35.58;;
70450;SDS011;58869;51.982;4.450;2024-01-25T17:42:18;36.95;;;35.57;;
70450;SDS011;58869;51.982;4.450;2024-01-25T17:49:54;40.16;;;38.97;;
70450;SDS011;58869;51.982;4.450;2024-01-25T17:52:23;39.96;;;38.82;;
70450;SDS011;58869;51.982;4.450;2024-01-25T17:58:29;40.20;;;39.03;;
70450;SDS011;58869;51.982;4.450;2024-01-25T18:01:00;40.31;;;39.05;;
70450;SDS011;58869;51.982;4.450;2024-01-25T18:06:27;40.09;;;38.39;;
70450;SDS011;58869;51.982;4.450;2024-01-25T18:08:52;40.65;;;39.14;;